Time;durP1;ratioP1;P1;durP2;ratioP2;P2;SDS_P1;SDS_P2;PMS_P1;PMS_P2;Temp;Humidity;BMP_temperature;BMP_pressure;BME280_temperature;BME280_humidity;BME280_pressure;Samples;Min_cycle;Max_cycle;Signal;HPM_P1;HPM_P2
2022/03/14 00:00:07;;;;;;;2.00;0.98;;;;;;;;;;4975722;28;20039;-81
2022/03/14 00:02:34;;;;;;;1.33;0.80;;;;;;;;;;4963061;28;20089;-82
2022/03/14 00:05:00;;;;;;;1.90;1.08;;;;;;;;;;4979154;28;20030;-82
2022/03/14 00:07:26;;;;;;;2.00;1.08;;;;;;;;;;4978934;28;20129;-81
2022/03/14 00:09:52;;;;;;;1.70;1.00;;;;;;;;;;4979101;28;20038;-81
2022/03/14 00:12:20;;;;;;;1.52;1.00;;;;;;;;;;4978756;28;20042;-82
2022/03/14 00:14:46;;;;;;;1.83;1.00;;;;;;;;;;4979356;28;20045;-82
2022/03/14 00:17:11;;;;;;;1.77;0.95;;;;;;;;;;4995376;28;20459;-81
2022/03/14 00:19:37;;;;;;;1.27;0.63;;;;;;;;;;4994859;28;20420;-81
2022/03/14 00:22:03;;;;;;;1.70;0.80;;;;;;;;;;4978771;28;20392;-81
2022/03/14 00:24:29;;;;;;;2.25;1.05;;;;;;;;;;4978133;28;20038;-82
2022/03/14 00:26:54;;;;;;;2.33;0.70;;;;;;;;;;5011571;28;20040;-81
2022/03/14 00:29:21;;;;;;;1.98;0.70;;;;;;;;;;4978697;28;20394;-81
2022/03/14 00:31:47;;;;;;;1.80;0.93;;;;;;;;;;4978650;28;20061;-81
2022/03/14 00:34:13;;;;;;;1.65;0.70;;;;;;;;;;4978628;28;20045;-82
2022/03/14 00:36:41;;;;;;;2.05;1.00;;;;;;;;;;4994477;28;20121;-82
2022/03/14 00:39:06;;;;;;;1.60;0.98;;;;;;;;;;4978391;28;20030;-82
2022/03/14 00:41:32;;;;;;;2.33;0.95;;;;;;;;;;5010694;28;20095;-81
2022/03/14 00:43:57;;;;;;;1.65;0.80;;;;;;;;;;4994419;28;20037;-81
2022/03/14 00:46:23;;;;;;;1.80;1.00;;;;;;;;;;4978196;28;20111;-79
2022/03/14 00:48:49;;;;;;;1.70;0.95;;;;;;;;;;4994364;28;20061;-80
2022/03/14 00:51:15;;;;;;;1.92;1.00;;;;;;;;;;4978135;28;20034;-80
2022/03/14 00:53:40;;;;;;;1.45;0.80;;;;;;;;;;4993839;28;20041;-81
2022/03/14 00:56:06;;;;;;;1.30;0.80;;;;;;;;;;4994305;28;20054;-81
2022/03/14 00:58:33;;;;;;;1.67;0.60;;;;;;;;;;4978259;28;20462;-82
2022/03/14 01:00:58;;;;;;;1.80;0.75;;;;;;;;;;4962481;28;20030;-81
2022/03/14 01:03:24;;;;;;;1.48;0.80;;;;;;;;;;4975357;28;20051;-81
2022/03/14 01:05:49;;;;;;;1.70;0.80;;;;;;;;;;4962560;28;20048;-82
2022/03/14 01:08:15;;;;;;;1.13;0.68;;;;;;;;;;4962730;28;20404;-81
2022/03/14 01:10:40;;;;;;;1.30;0.70;;;;;;;;;;4978783;28;20034;-81
2022/03/14 01:13:06;;;;;;;1.73;0.70;;;;;;;;;;4994974;28;20041;-81
2022/03/14 01:15:32;;;;;;;2.47;0.82;;;;;;;;;;4962669;28;20030;-81
2022/03/14 01:17:58;;;;;;;1.52;0.82;;;;;;;;;;4962505;28;20074;-82
2022/03/14 01:20:25;;;;;;;1.77;0.80;;;;;;;;;;4978814;28;20041;-81
2022/03/14 01:22:50;;;;;;;1.58;0.70;;;;;;;;;;4981825;28;20029;-82
2022/03/14 01:25:16;;;;;;;1.02;0.70;;;;;;;;;;4997902;28;20104;-82
2022/03/14 01:27:41;;;;;;;1.05;0.60;;;;;;;;;;5014542;28;20045;-81
2022/03/14 01:30:07;;;;;;;1.63;0.75;;;;;;;;;;4982058;28;20037;-80
2022/03/14 01:32:33;;;;;;;1.73;0.85;;;;;;;;;;4997960;28;20377;-81
2022/03/14 01:34:58;;;;;;;1.27;0.70;;;;;;;;;;5013911;28;20045;-81
2022/03/14 01:37:24;;;;;;;2.28;0.70;;;;;;;;;;4981716;28;20045;-81
2022/03/14 01:39:49;;;;;;;2.70;0.73;;;;;;;;;;4997906;28;20042;-81
2022/03/14 01:42:18;;;;;;;1.98;0.73;;;;;;;;;;4997995;28;20036;-81
2022/03/14 01:44:46;;;;;;;1.52;0.70;;;;;;;;;;4981681;28;20042;-82
2022/03/14 01:47:12;;;;;;;1.23;0.68;;;;;;;;;;4982348;28;20400;-82
2022/03/14 01:49:37;;;;;;;1.45;0.68;;;;;;;;;;4981084;28;20099;-81
2022/03/14 01:52:05;;;;;;;1.20;0.60;;;;;;;;;;4981321;28;20034;-81
2022/03/14 01:54:31;;;;;;;0.73;0.40;;;;;;;;;;5013504;28;20527;-81
2022/03/14 01:56:57;;;;;;;1.05;0.50;;;;;;;;;;4981350;28;20033;-81
2022/03/14 01:59:23;;;;;;;1.42;0.60;;;;;;;;;;4981531;28;20076;-82
2022/03/14 02:01:48;;;;;;;1.50;0.60;;;;;;;;;;4977867;28;20408;-81
2022/03/14 02:04:17;;;;;;;1.40;0.65;;;;;;;;;;4977888;28;20076;-81
2022/03/14 02:06:44;;;;;;;1.17;0.52;;;;;;;;;;4962640;28;20038;-81
2022/03/14 02:09:09;;;;;;;0.95;0.50;;;;;;;;;;4962164;28;20507;-81
2022/03/14 02:11:35;;;;;;;1.42;0.60;;;;;;;;;;4961522;28;20108;-81
2022/03/14 02:14:00;;;;;;;1.10;0.45;;;;;;;;;;4961681;28;20061;-82
2022/03/14 02:16:26;;;;;;;1.95;0.60;;;;;;;;;;4960612;28;20061;-82
2022/03/14 02:18:51;;;;;;;1.23;0.50;;;;;;;;;;4960891;28;20128;-81
2022/03/14 02:21:17;;;;;;;1.52;0.55;;;;;;;;;;4961115;28;20404;-81
2022/03/14 02:23:42;;;;;;;0.90;0.50;;;;;;;;;;4971365;28;20416;-82
2022/03/14 02:26:08;;;;;;;0.98;0.50;;;;;;;;;;5013233;28;20042;-82
2022/03/14 02:28:34;;;;;;;0.90;0.43;;;;;;;;;;4997459;28;20515;-82
2022/03/14 02:31:02;;;;;;;0.82;0.45;;;;;;;;;;4997233;28;20030;-82
2022/03/14 02:33:27;;;;;;;1.08;0.63;;;;;;;;;;4996759;28;20080;-81
2022/03/14 02:35:52;;;;;;;1.10;0.50;;;;;;;;;;4976952;28;20110;-81
2022/03/14 02:38:19;;;;;;;1.20;0.50;;;;;;;;;;4960744;28;20452;-81
2022/03/14 02:40:46;;;;;;;0.70;0.30;;;;;;;;;;4961861;28;20026;-81
2022/03/14 02:43:14;;;;;;;0.93;0.50;;;;;;;;;;4961345;28;20061;-81
2022/03/14 02:45:41;;;;;;;0.50;0.30;;;;;;;;;;4977366;28;20035;-81
2022/03/14 02:48:07;;;;;;;1.02;0.40;;;;;;;;;;4960858;28;20035;-81
2022/03/14 02:50:33;;;;;;;0.70;0.40;;;;;;;;;;4944995;28;20117;-81
2022/03/14 02:52:59;;;;;;;0.85;0.52;;;;;;;;;;4960931;28;20117;-81
2022/03/14 02:55:25;;;;;;;0.47;0.25;;;;;;;;;;4977086;28;20097;-81
2022/03/14 02:57:50;;;;;;;0.57;0.30;;;;;;;;;;4973709;28;20504;-81
2022/03/14 03:00:15;;;;;;;0.90;0.50;;;;;;;;;;4992887;28;20038;-81
2022/03/14 03:02:42;;;;;;;0.70;0.30;;;;;;;;;;4995939;28;20100;-81
2022/03/14 03:05:08;;;;;;;0.60;0.32;;;;;;;;;;4996579;28;20034;-82
2022/03/14 03:07:35;;;;;;;0.68;0.30;;;;;;;;;;4979867;28;20040;-81
2022/03/14 03:10:03;;;;;;;0.30;0.20;;;;;;;;;;4980580;28;20042;-81
2022/03/14 03:12:28;;;;;;;0.43;0.25;;;;;;;;;;4996682;28;20034;-81
2022/03/14 03:14:54;;;;;;;0.80;0.32;;;;;;;;;;4979888;28;20072;-81
2022/03/14 03:17:20;;;;;;;1.15;0.40;;;;;;;;;;4996034;28;20033;-81
2022/03/14 03:19:46;;;;;;;0.82;0.30;;;;;;;;;;4963638;28;20033;-81
2022/03/14 03:22:11;;;;;;;0.85;0.35;;;;;;;;;;4979522;28;20040;-81
2022/03/14 03:24:37;;;;;;;0.52;0.20;;;;;;;;;;4995598;28;20050;-82
2022/03/14 03:27:03;;;;;;;0.73;0.30;;;;;;;;;;4979454;28;20073;-81
2022/03/14 03:29:28;;;;;;;0.95;0.50;;;;;;;;;;4979934;28;20061;-81
2022/03/14 03:31:54;;;;;;;0.77;0.30;;;;;;;;;;4979141;28;20129;-81
2022/03/14 03:34:19;;;;;;;0.70;0.20;;;;;;;;;;4979411;28;20084;-81
2022/03/14 03:36:44;;;;;;;0.63;0.30;;;;;;;;;;4995470;28;20030;-81
2022/03/14 03:39:10;;;;;;;1.05;0.30;;;;;;;;;;4979446;28;20038;-81
2022/03/14 03:41:36;;;;;;;0.70;0.30;;;;;;;;;;4979235;28;20458;-82
2022/03/14 03:44:02;;;;;;;0.90;0.28;;;;;;;;;;4979580;28;20484;-81
2022/03/14 03:46:27;;;;;;;0.63;0.38;;;;;;;;;;4995281;28;20040;-81
2022/03/14 03:48:53;;;;;;;1.75;0.35;;;;;;;;;;4995393;28;20510;-81
2022/03/14 03:51:19;;;;;;;1.10;0.20;;;;;;;;;;4995053;28;20034;-81
2022/03/14 03:53:44;;;;;;;0.35;0.10;;;;;;;;;;4978817;28;20048;-81
2022/03/14 03:56:10;;;;;;;1.02;0.68;;;;;;;;;;4995224;28;20120;-81
2022/03/14 03:58:35;;;;;;;1.63;0.32;;;;;;;;;;4995213;28;20040;-81
2022/03/14 04:01:02;;;;;;;1.10;0.30;;;;;;;;;;4978665;28;20030;-82
2022/03/14 04:03:27;;;;;;;1.75;0.40;;;;;;;;;;4976381;28;20045;-81
2022/03/14 04:05:53;;;;;;;1.23;0.60;;;;;;;;;;4975380;28;20121;-82
2022/03/14 04:08:19;;;;;;;1.75;0.30;;;;;;;;;;4959583;28;20047;-81
2022/03/14 04:10:53;;;;;;;0.95;0.45;;;;;;;;;;4959868;28;20034;-81
2022/03/14 04:13:20;;;;;;;0.70;0.25;;;;;;;;;;4991755;28;20026;-81
2022/03/14 04:15:52;;;;;;;1.75;0.40;;;;;;;;;;4959644;28;20043;-82
2022/03/14 04:18:23;;;;;;;1.77;0.57;;;;;;;;;;4976086;28;20045;-81
2022/03/14 04:20:49;;;;;;;1.08;0.40;;;;;;;;;;4959705;28;20046;-81
2022/03/14 04:23:17;;;;;;;1.25;0.40;;;;;;;;;;4981831;28;20101;-81
2022/03/14 04:25:43;;;;;;;1.38;0.40;;;;;;;;;;4979292;28;20046;-81
2022/03/14 04:28:09;;;;;;;1.42;0.40;;;;;;;;;;4978773;28;20041;-82
2022/03/14 04:30:34;;;;;;;0.43;0.20;;;;;;;;;;4978012;28;20488;-81
2022/03/14 04:33:00;;;;;;;0.98;0.30;;;;;;;;;;4994615;28;20496;-81
2022/03/14 04:35:26;;;;;;;1.65;0.30;;;;;;;;;;4991432;28;20031;-81
2022/03/14 04:37:51;;;;;;;0.50;0.30;;;;;;;;;;4958669;28;20030;-81
2022/03/14 04:40:17;;;;;;;1.42;0.32;;;;;;;;;;4975060;28;20030;-82
2022/03/14 04:42:42;;;;;;;1.67;0.50;;;;;;;;;;4975151;28;20146;-81
2022/03/14 04:45:09;;;;;;;1.92;0.60;;;;;;;;;;4958404;28;20065;-81
2022/03/14 04:47:34;;;;;;;0.50;0.30;;;;;;;;;;4975164;28;20043;-81
2022/03/14 04:50:00;;;;;;;0.98;0.22;;;;;;;;;;4975330;28;20038;-81
2022/03/14 04:52:29;;;;;;;2.00;0.52;;;;;;;;;;4974994;28;20042;-82
2022/03/14 04:54:56;;;;;;;1.10;0.35;;;;;;;;;;4958674;28;20034;-81
2022/03/14 04:57:22;;;;;;;1.15;0.30;;;;;;;;;;4978581;28;20033;-82
2022/03/14 04:59:47;;;;;;;1.35;0.40;;;;;;;;;;4977921;28;20091;-81
2022/03/14 05:02:12;;;;;;;0.93;0.30;;;;;;;;;;4975022;28;20117;-82
2022/03/14 05:04:38;;;;;;;2.20;0.68;;;;;;;;;;4942649;28;20378;-81
2022/03/14 05:07:06;;;;;;;2.22;0.63;;;;;;;;;;4958637;28;20453;-81
2022/03/14 05:09:31;;;;;;;1.85;0.50;;;;;;;;;;4959190;28;20041;-81
2022/03/14 05:11:57;;;;;;;2.10;0.50;;;;;;;;;;4958663;28;20053;-82
2022/03/14 05:14:22;;;;;;;2.47;0.60;;;;;;;;;;4974501;28;20042;-82
2022/03/14 05:16:48;;;;;;;1.60;0.45;;;;;;;;;;4958686;28;20050;-82
2022/03/14 05:19:13;;;;;;;2.63;0.52;;;;;;;;;;4942644;28;20035;-82
2022/03/14 05:21:39;;;;;;;1.98;0.65;;;;;;;;;;4942554;28;20036;-81
2022/03/14 05:24:05;;;;;;;2.45;0.70;;;;;;;;;;4977332;28;20044;-81
2022/03/14 05:26:31;;;;;;;1.40;0.45;;;;;;;;;;4994291;28;20046;-82
2022/03/14 05:28:57;;;;;;;2.08;0.50;;;;;;;;;;4977655;28;20453;-81
2022/03/14 05:31:23;;;;;;;1.75;0.50;;;;;;;;;;5010769;28;20046;-81
2022/03/14 05:33:48;;;;;;;2.13;0.60;;;;;;;;;;4977774;28;20735;-82
2022/03/14 05:36:14;;;;;;;2.53;0.50;;;;;;;;;;4990429;28;20038;-82
2022/03/14 05:38:40;;;;;;;1.48;0.55;;;;;;;;;;4974875;28;20055;-82
2022/03/14 05:41:05;;;;;;;2.65;0.60;;;;;;;;;;4974670;28;20042;-82
2022/03/14 05:43:36;;;;;;;2.45;0.70;;;;;;;;;;4974355;28;20042;-82
2022/03/14 05:46:04;;;;;;;2.38;0.57;;;;;;;;;;4975234;28;20057;-82
2022/03/14 05:48:31;;;;;;;2.70;0.50;;;;;;;;;;4974494;28;20404;-82
2022/03/14 05:50:57;;;;;;;2.00;0.60;;;;;;;;;;4977226;28;20477;-81
2022/03/14 05:53:22;;;;;;;1.92;0.40;;;;;;;;;;4977852;28;20085;-82
2022/03/14 05:55:48;;;;;;;1.95;0.40;;;;;;;;;;4977702;28;20050;-81
2022/03/14 05:58:13;;;;;;;1.65;0.73;;;;;;;;;;4994083;28;20488;-80
2022/03/14 06:00:39;;;;;;;1.85;0.75;;;;;;;;;;4978060;28;20089;-79
2022/03/14 06:03:05;;;;;;;2.80;0.68;;;;;;;;;;4978047;28;20031;-80
2022/03/14 06:05:30;;;;;;;2.30;0.88;;;;;;;;;;4977668;28;20124;-79
2022/03/14 06:07:56;;;;;;;2.22;0.70;;;;;;;;;;4961584;28;20412;-79
2022/03/14 06:10:21;;;;;;;3.78;0.93;;;;;;;;;;4993696;28;20121;-78
2022/03/14 06:12:47;;;;;;;3.30;0.70;;;;;;;;;;4990324;28;20080;-79
2022/03/14 06:15:13;;;;;;;3.17;0.68;;;;;;;;;;4993866;28;20046;-79
2022/03/14 06:17:41;;;;;;;6.00;2.70;;;;;;;;;;4960538;28;20042;-79
2022/03/14 06:20:09;;;;;;;42.60;30.92;;;;;;;;;;4976280;28;20092;-79
2022/03/14 06:22:37;;;;;;;40.72;31.75;;;;;;;;;;4977638;28;20030;-78
2022/03/14 06:25:03;;;;;;;37.22;29.80;;;;;;;;;;4996880;28;20468;-79
2022/03/14 06:27:28;;;;;;;31.80;28.10;;;;;;;;;;4980868;28;20096;-79
2022/03/14 06:29:54;;;;;;;30.58;24.65;;;;;;;;;;4996976;28;20033;-79
2022/03/14 06:32:20;;;;;;;28.85;22.70;;;;;;;;;;4980628;28;20059;-79
2022/03/14 06:34:45;;;;;;;33.25;20.08;;;;;;;;;;4980634;28;20063;-78
2022/03/14 06:37:11;;;;;;;21.83;16.70;;;;;;;;;;4996533;28;20470;-79
2022/03/14 06:39:37;;;;;;;22.00;15.35;;;;;;;;;;4980342;28;20113;-78
2022/03/14 06:42:06;;;;;;;20.30;14.40;;;;;;;;;;4996898;28;20144;-79
2022/03/14 06:44:31;;;;;;;17.85;14.40;;;;;;;;;;4980735;28;20095;-78
2022/03/14 06:46:57;;;;;;;15.80;13.98;;;;;;;;;;4996536;28;20512;-78
2022/03/14 06:49:23;;;;;;;18.75;14.95;;;;;;;;;;4996547;28;20033;-79
2022/03/14 06:51:49;;;;;;;16.90;12.65;;;;;;;;;;4996065;28;20128;-79
2022/03/14 06:54:14;;;;;;;18.60;13.07;;;;;;;;;;4979704;28;20168;-79
2022/03/14 06:56:43;;;;;;;15.80;12.38;;;;;;;;;;4980338;28;20124;-79
2022/03/14 06:59:09;;;;;;;13.40;11.50;;;;;;;;;;4996973;28;20033;-79
2022/03/14 07:01:35;;;;;;;15.13;11.68;;;;;;;;;;4976557;28;20100;-78
2022/03/14 07:04:02;;;;;;;14.88;11.20;;;;;;;;;;4976729;28;20038;-78
2022/03/14 07:06:28;;;;;;;13.93;9.32;;;;;;;;;;4977265;28;20046;-78
2022/03/14 07:08:54;;;;;;;16.13;9.43;;;;;;;;;;4976568;28;20117;-78
2022/03/14 07:11:20;;;;;;;12.60;7.70;;;;;;;;;;4958863;28;20035;-78
2022/03/14 07:13:45;;;;;;;16.00;9.07;;;;;;;;;;4974603;28;20026;-80
2022/03/14 07:16:10;;;;;;;10.00;6.68;;;;;;;;;;4960282;28;20046;-79
2022/03/14 07:18:36;;;;;;;10.57;6.03;;;;;;;;;;4976485;28;20039;-80
2022/03/14 07:21:01;;;;;;;8.95;6.35;;;;;;;;;;4975911;28;20031;-79
2022/03/14 07:23:27;;;;;;;11.93;5.47;;;;;;;;;;4983019;28;20030;-79
2022/03/14 07:25:53;;;;;;;10.88;5.18;;;;;;;;;;5011921;28;20443;-80
2022/03/14 07:28:18;;;;;;;6.90;4.38;;;;;;;;;;4995417;28;20037;-79
2022/03/14 07:30:44;;;;;;;8.05;4.50;;;;;;;;;;5011332;28;20042;-79
2022/03/14 07:33:09;;;;;;;9.02;4.10;;;;;;;;;;4996185;28;20037;-79
2022/03/14 07:35:35;;;;;;;7.63;3.95;;;;;;;;;;5011517;28;20092;-79
2022/03/14 07:38:01;;;;;;;7.50;3.67;;;;;;;;;;4978959;28;20044;-79
2022/03/14 07:40:26;;;;;;;6.90;3.80;;;;;;;;;;4996242;28;20404;-79
2022/03/14 07:42:53;;;;;;;6.30;3.00;;;;;;;;;;5011094;28;20116;-79
2022/03/14 07:45:24;;;;;;;4.18;2.72;;;;;;;;;;5011613;28;20550;-80
2022/03/14 07:47:49;;;;;;;4.82;2.33;;;;;;;;;;4995350;28;20037;-79
2022/03/14 07:50:15;;;;;;;7.03;2.17;;;;;;;;;;4995349;28;20080;-80
2022/03/14 07:52:41;;;;;;;5.57;2.22;;;;;;;;;;4994442;28;20563;-80
2022/03/14 07:55:07;;;;;;;4.03;1.90;;;;;;;;;;4995132;28;20121;-79
2022/03/14 07:57:33;;;;;;;5.10;2.00;;;;;;;;;;4979181;28;20385;-79
2022/03/14 07:59:59;;;;;;;5.95;2.00;;;;;;;;;;4995112;28;20041;-79
2022/03/14 08:02:25;;;;;;;4.13;1.70;;;;;;;;;;4991990;28;20049;-79
2022/03/14 08:04:50;;;;;;;4.15;1.92;;;;;;;;;;4976023;28;20046;-79
2022/03/14 08:07:16;;;;;;;3.50;1.60;;;;;;;;;;4991437;28;20522;-80
2022/03/14 08:09:41;;;;;;;5.25;1.60;;;;;;;;;;4992758;28;20038;-79
2022/03/14 08:12:07;;;;;;;4.97;1.60;;;;;;;;;;4991725;28;20531;-79
2022/03/14 08:14:32;;;;;;;5.78;1.98;;;;;;;;;;4958750;28;20088;-79
2022/03/14 08:16:58;;;;;;;4.53;1.63;;;;;;;;;;4986821;28;20034;-79
2022/03/14 08:19:24;;;;;;;9.35;1.70;;;;;;;;;;4959204;28;20061;-79
2022/03/14 08:21:51;;;;;;;5.63;1.27;;;;;;;;;;4958715;28;20070;-78
2022/03/14 08:24:17;;;;;;;7.15;2.10;;;;;;;;;;4958080;28;20085;-79
2022/03/14 08:26:43;;;;;;;5.53;1.42;;;;;;;;;;5010972;28;20512;-79
2022/03/14 08:29:09;;;;;;;5.45;1.83;;;;;;;;;;5011583;28;20034;-79
2022/03/14 08:31:35;;;;;;;5.95;1.90;;;;;;;;;;4994474;28;20404;-79
2022/03/14 08:34:01;;;;;;;10.95;1.80;;;;;;;;;;5010904;28;20474;-78
2022/03/14 08:36:27;;;;;;;7.72;1.40;;;;;;;;;;4974437;28;20038;-79
2022/03/14 08:38:54;;;;;;;7.05;1.15;;;;;;;;;;4982568;28;20037;-78
2022/03/14 08:41:19;;;;;;;6.70;1.48;;;;;;;;;;4985191;28;20519;-79
2022/03/14 08:43:45;;;;;;;6.45;1.67;;;;;;;;;;4958526;28;20030;-78
2022/03/14 08:46:11;;;;;;;6.10;1.70;;;;;;;;;;4977994;28;20069;-78
2022/03/14 08:48:37;;;;;;;4.55;1.30;;;;;;;;;;4993659;28;20118;-79
2022/03/14 08:51:03;;;;;;;3.75;1.10;;;;;;;;;;5010072;28;20132;-79
2022/03/14 08:53:29;;;;;;;7.80;1.60;;;;;;;;;;4994277;28;20030;-79
2022/03/14 08:55:55;;;;;;;4.55;1.80;;;;;;;;;;4962036;28;20042;-78
2022/03/14 08:58:21;;;;;;;4.45;0.95;;;;;;;;;;4978114;28;20041;-79
2022/03/14 09:00:47;;;;;;;4.75;1.40;;;;;;;;;;4994015;28;20176;-78
2022/03/14 09:03:12;;;;;;;4.43;1.20;;;;;;;;;;4993749;28;20061;-78
2022/03/14 09:05:38;;;;;;;6.20;1.35;;;;;;;;;;4993435;28;20430;-78
2022/03/14 09:08:04;;;;;;;2.75;0.93;;;;;;;;;;4993565;28;20451;-78
2022/03/14 09:10:31;;;;;;;4.97;1.95;;;;;;;;;;4994638;28;20042;-78
2022/03/14 09:12:56;;;;;;;4.55;1.10;;;;;;;;;;4994207;28;20030;-78
2022/03/14 09:15:22;;;;;;;2.40;0.90;;;;;;;;;;4994586;28;20045;-79
2022/03/14 09:17:52;;;;;;;4.00;1.13;;;;;;;;;;4994321;28;20037;-79
2022/03/14 09:20:19;;;;;;;3.20;1.05;;;;;;;;;;4977516;28;20407;-79
2022/03/14 09:22:45;;;;;;;5.20;1.13;;;;;;;;;;4977980;28;20025;-78
2022/03/14 09:25:13;;;;;;;4.05;0.90;;;;;;;;;;4979676;28;20096;-78
2022/03/14 09:27:38;;;;;;;3.47;1.10;;;;;;;;;;4998240;28;20057;-79
2022/03/14 09:30:04;;;;;;;2.80;0.93;;;;;;;;;;4998270;28;20130;-78
2022/03/14 09:32:30;;;;;;;4.18;0.90;;;;;;;;;;4998016;28;20060;-78
2022/03/14 09:34:59;;;;;;;3.15;1.05;;;;;;;;;;5013179;28;20042;-79
2022/03/14 09:37:27;;;;;;;4.30;0.95;;;;;;;;;;5014008;28;20060;-78
2022/03/14 09:39:53;;;;;;;3.88;0.98;;;;;;;;;;4980932;28;20416;-78
2022/03/14 09:42:21;;;;;;;2.60;1.13;;;;;;;;;;4981867;28;20034;-79
2022/03/14 09:44:53;;;;;;;6.88;1.98;;;;;;;;;;4981893;28;20049;-79
2022/03/14 09:47:18;;;;;;;2.55;0.82;;;;;;;;;;4981536;28;20071;-79
2022/03/14 09:49:44;;;;;;;2.38;0.70;;;;;;;;;;4996821;28;20069;-79
2022/03/14 09:52:10;;;;;;;3.42;1.23;;;;;;;;;;5013931;28;20484;-79
2022/03/14 09:54:36;;;;;;;4.88;1.08;;;;;;;;;;4996945;28;20085;-78
2022/03/14 09:57:01;;;;;;;2.45;1.05;;;;;;;;;;4995957;28;20033;-79
2022/03/14 09:59:27;;;;;;;3.78;1.08;;;;;;;;;;4996548;28;20418;-78
2022/03/14 10:01:52;;;;;;;2.75;0.75;;;;;;;;;;4977413;28;20038;-79
2022/03/14 10:04:18;;;;;;;2.50;0.90;;;;;;;;;;4977165;28;20045;-79
2022/03/14 10:06:44;;;;;;;3.85;0.73;;;;;;;;;;4977847;28;20038;-79
2022/03/14 10:09:09;;;;;;;2.88;1.00;;;;;;;;;;4977898;28;20093;-79
2022/03/14 10:11:35;;;;;;;4.35;0.70;;;;;;;;;;4976919;28;20129;-78
2022/03/14 10:14:02;;;;;;;2.85;0.88;;;;;;;;;;4944071;28;20057;-79
2022/03/14 10:16:27;;;;;;;2.95;1.02;;;;;;;;;;4962205;28;20263;-78
2022/03/14 10:19:02;;;;;;;2.42;0.80;;;;;;;;;;4961490;28;20488;-78
2022/03/14 10:21:35;;;;;;;3.40;1.00;;;;;;;;;;4962637;28;20030;-78
2022/03/14 10:24:12;;;;;;;4.40;0.93;;;;;;;;;;4988293;28;20042;-78
2022/03/14 10:26:42;;;;;;;2.00;0.93;;;;;;;;;;4978727;28;20030;-78
2022/03/14 10:29:12;;;;;;;2.75;0.93;;;;;;;;;;4977230;28;20658;-78
2022/03/14 10:31:42;;;;;;;2.95;1.00;;;;;;;;;;4977640;28;20059;-78
2022/03/14 10:34:12;;;;;;;2.92;0.88;;;;;;;;;;4977779;28;20109;-78
2022/03/14 10:36:46;;;;;;;2.00;0.77;;;;;;;;;;5012225;28;20523;-78
2022/03/14 10:39:12;;;;;;;2.83;0.80;;;;;;;;;;4980290;28;20072;-78
2022/03/14 10:41:39;;;;;;;2.28;0.80;;;;;;;;;;4996648;28;20038;-78
2022/03/14 10:44:05;;;;;;;1.70;0.55;;;;;;;;;;4996550;28;20042;-78
2022/03/14 10:46:31;;;;;;;2.88;0.77;;;;;;;;;;4980183;28;20466;-79
2022/03/14 10:48:56;;;;;;;3.45;0.82;;;;;;;;;;4996178;28;20519;-78
2022/03/14 10:51:22;;;;;;;1.58;0.77;;;;;;;;;;4996365;28;20080;-79
2022/03/14 10:53:48;;;;;;;3.17;0.93;;;;;;;;;;4994988;28;20050;-79
2022/03/14 10:56:14;;;;;;;3.20;1.58;;;;;;;;;;4980778;28;20064;-78
2022/03/14 10:58:39;;;;;;;5.30;1.63;;;;;;;;;;4995795;28;20400;-78
2022/03/14 11:01:06;;;;;;;6.90;2.15;;;;;;;;;;4976883;28;20030;-78
2022/03/14 11:03:41;;;;;;;6.30;3.20;;;;;;;;;;4996003;28;20069;-79
2022/03/14 11:06:10;;;;;;;7.10;2.40;;;;;;;;;;4995813;28;20038;-78
2022/03/14 11:08:36;;;;;;;5.70;2.67;;;;;;;;;;5012056;28;20404;-78
2022/03/14 11:11:06;;;;;;;5.22;2.58;;;;;;;;;;5012408;28;20042;-78
2022/03/14 11:13:32;;;;;;;6.00;2.80;;;;;;;;;;4995600;28;20404;-79
2022/03/14 11:15:58;;;;;;;5.95;2.20;;;;;;;;;;4963386;28;20138;-78
2022/03/14 11:18:24;;;;;;;4.53;2.17;;;;;;;;;;4995340;28;20504;-78
2022/03/14 11:20:51;;;;;;;2.95;1.80;;;;;;;;;;4996149;28;20129;-78
2022/03/14 11:23:16;;;;;;;5.72;1.80;;;;;;;;;;4979067;28;20029;-78
2022/03/14 11:25:45;;;;;;;4.53;1.80;;;;;;;;;;4994426;28;20389;-78
2022/03/14 11:28:17;;;;;;;5.35;2.13;;;;;;;;;;4979859;28;20038;-78
2022/03/14 11:30:45;;;;;;;4.78;1.83;;;;;;;;;;5011807;28;20037;-78
2022/03/14 11:33:10;;;;;;;7.43;2.45;;;;;;;;;;4995813;28;20034;-78
2022/03/14 11:35:36;;;;;;;5.75;1.80;;;;;;;;;;5003561;28;20038;-78
2022/03/14 11:38:01;;;;;;;7.30;2.08;;;;;;;;;;4975497;28;20042;-80
2022/03/14 11:40:27;;;;;;;5.22;1.77;;;;;;;;;;4976226;28;20388;-79
2022/03/14 11:42:52;;;;;;;6.10;1.75;;;;;;;;;;4992193;28;20033;-78
2022/03/14 11:45:18;;;;;;;5.30;1.50;;;;;;;;;;4978137;28;20171;-79
2022/03/14 11:47:43;;;;;;;6.10;1.52;;;;;;;;;;4995246;28;20060;-79
2022/03/14 11:50:09;;;;;;;6.60;2.20;;;;;;;;;;4995077;28;20497;-79
2022/03/14 11:52:35;;;;;;;6.47;2.30;;;;;;;;;;4995292;28;20030;-79
2022/03/14 11:55:02;;;;;;;6.72;2.38;;;;;;;;;;4978119;28;20497;-79
2022/03/14 11:57:34;;;;;;;4.55;1.98;;;;;;;;;;4979684;28;20064;-79
2022/03/14 12:00:20;;;;;;;;;;;;;;;;;;4994783;28;20073;-78
2022/03/14 12:02:46;;;;;;;5.90;2.28;;;;;;;;;;5011607;28;19975;-78
2022/03/14 12:05:11;;;;;;;5.38;2.03;;;;;;;;;;5011382;28;20508;-78
2022/03/14 12:07:37;;;;;;;6.03;2.10;;;;;;;;;;4994678;28;20049;-78
2022/03/14 12:10:27;;;;;;;4.85;1.80;;;;;;;;;;4994959;28;20057;-79
2022/03/14 12:12:53;;;;;;;5.68;2.42;;;;;;;;;;5010164;28;20512;-79
2022/03/14 12:15:44;;;;;;;6.80;1.77;;;;;;;;;;4995024;28;20034;-79
2022/03/14 12:18:25;;;;;;;4.05;1.45;;;;;;;;;;5010850;28;20096;-79
2022/03/14 12:21:32;;;;;;;4.38;1.27;;;;;;;;;;4994966;28;20034;-78
2022/03/14 12:23:57;;;;;;;4.13;1.27;;;;;;;;;;5011772;28;20465;-78
2022/03/14 12:26:24;;;;;;;5.10;1.48;;;;;;;;;;4994680;28;20048;-79
2022/03/14 12:28:49;;;;;;;5.95;1.35;;;;;;;;;;4978640;28;20037;-79
2022/03/14 12:31:16;;;;;;;8.18;2.47;;;;;;;;;;4983470;28;20429;-79
2022/03/14 12:33:45;;;;;;;6.00;1.40;;;;;;;;;;4978175;28;20136;-79
2022/03/14 12:36:23;;;;;;;6.28;0.98;;;;;;;;;;4978739;28;20037;-79
2022/03/14 12:39:07;;;;;;;5.65;1.30;;;;;;;;;;5010824;28;20125;-79
2022/03/14 12:41:36;;;;;;;4.32;1.50;;;;;;;;;;5006923;28;20049;-78
2022/03/14 12:44:14;;;;;;;5.00;1.42;;;;;;;;;;4996155;28;20034;-78
2022/03/14 12:46:40;;;;;;;5.75;1.70;;;;;;;;;;5009329;28;20037;-78
2022/03/14 12:49:06;;;;;;;4.82;1.17;;;;;;;;;;4974221;28;20142;-78
2022/03/14 12:51:38;;;;;;;6.22;1.13;;;;;;;;;;4958581;28;20069;-78
2022/03/14 12:54:04;;;;;;;5.93;1.40;;;;;;;;;;4974888;28;20043;-78
2022/03/14 12:56:30;;;;;;;5.55;1.08;;;;;;;;;;4960460;28;20484;-78
2022/03/14 12:59:09;;;;;;;5.70;1.45;;;;;;;;;;4958425;28;20026;-78
2022/03/14 13:01:40;;;;;;;5.40;1.00;;;;;;;;;;4978843;28;20108;-78
2022/03/14 13:04:18;;;;;;;4.03;1.02;;;;;;;;;;4979087;28;20029;-78
2022/03/14 13:06:49;;;;;;;5.20;1.17;;;;;;;;;;5010366;28;20034;-78
2022/03/14 13:09:35;;;;;;;4.43;1.10;;;;;;;;;;4995034;28;20036;-78
2022/03/14 13:12:00;;;;;;;4.38;0.95;;;;;;;;;;5009973;28;20045;-78
2022/03/14 13:14:26;;;;;;;5.43;1.27;;;;;;;;;;5010528;28;20044;-78
2022/03/14 13:16:53;;;;;;;4.45;1.45;;;;;;;;;;4994623;28;20037;-78
2022/03/14 13:19:19;;;;;;;3.13;0.95;;;;;;;;;;5009642;28;20500;-78
2022/03/14 13:21:45;;;;;;;3.90;0.82;;;;;;;;;;4992275;28;20053;-77
2022/03/14 13:24:10;;;;;;;4.20;1.15;;;;;;;;;;5009953;28;20084;-77
2022/03/14 13:26:41;;;;;;;4.75;1.35;;;;;;;;;;4993028;28;20492;-77
2022/03/14 13:29:07;;;;;;;5.15;1.17;;;;;;;;;;4978993;28;20041;-77
2022/03/14 13:31:37;;;;;;;7.10;1.38;;;;;;;;;;4958209;28;20104;-78
2022/03/14 13:34:07;;;;;;;12.15;1.75;;;;;;;;;;4957583;28;20030;-78
2022/03/14 13:36:51;;;;;;;8.38;1.90;;;;;;;;;;4957810;28;20046;-78
2022/03/14 13:39:18;;;;;;;13.07;2.08;;;;;;;;;;4975054;28;20034;-78
2022/03/14 13:41:44;;;;;;;10.30;1.70;;;;;;;;;;4973487;28;20053;-78
2022/03/14 13:44:14;;;;;;;7.88;1.63;;;;;;;;;;4989385;28;20030;-78
2022/03/14 13:46:45;;;;;;;12.68;1.77;;;;;;;;;;4992957;28;20034;-78
2022/03/14 13:49:17;;;;;;;10.55;1.60;;;;;;;;;;5009257;28;20041;-78
2022/03/14 13:51:54;;;;;;;22.20;2.37;;;;;;;;;;5010531;28;20052;-78
2022/03/14 13:54:24;;;;;;;16.67;1.88;;;;;;;;;;5009483;28;20293;-79
2022/03/14 13:56:51;;;;;;;10.38;1.85;;;;;;;;;;4993297;28;20470;-80
2022/03/14 13:59:33;;;;;;;9.02;1.80;;;;;;;;;;4973786;28;20070;-81
2022/03/14 14:02:02;;;;;;;9.70;2.13;;;;;;;;;;4978359;28;20404;-81
2022/03/14 14:04:33;;;;;;;7.57;1.98;;;;;;;;;;4978084;28;20034;-81
2022/03/14 14:06:59;;;;;;;7.53;1.15;;;;;;;;;;4993352;28;20067;-80
2022/03/14 14:09:29;;;;;;;6.80;2.15;;;;;;;;;;4993470;28;20519;-80
2022/03/14 14:12:08;;;;;;;6.72;1.70;;;;;;;;;;4978517;28;20027;-79
2022/03/14 14:14:38;;;;;;;6.28;1.33;;;;;;;;;;4981673;28;20041;-81
2022/03/14 14:17:33;;;;;;;5.55;1.08;;;;;;;;;;4981342;28;20479;-81
2022/03/14 14:20:18;;;;;;;7.63;1.27;;;;;;;;;;4992054;28;20052;-79
2022/03/14 14:22:54;;;;;;;3.45;1.00;;;;;;;;;;5014279;28;20030;-78
2022/03/14 14:25:20;;;;;;;4.68;1.30;;;;;;;;;;4996529;28;20065;-78
2022/03/14 14:28:05;;;;;;;3.45;1.05;;;;;;;;;;4996526;28;20484;-79
2022/03/14 14:30:31;;;;;;;3.10;0.85;;;;;;;;;;4998274;28;20049;-78
2022/03/14 14:32:58;;;;;;;6.10;1.10;;;;;;;;;;5012624;28;20026;-79
2022/03/14 14:35:24;;;;;;;7.55;1.23;;;;;;;;;;4980244;28;20180;-80
2022/03/14 14:37:49;;;;;;;5.47;1.10;;;;;;;;;;5010997;28;20504;-79
2022/03/14 14:40:15;;;;;;;4.82;1.00;;;;;;;;;;4996586;28;20034;-80